Smit Barbados — MSDU8 — position and weather

sailwx.info

Track history (hours):
 
Tides and Currents Weather Stations Pressure Air Temp Water Temp Dewpoint Dewpoint Depression Visibility Wind Speed Wind Dir Waves Ship Positions

Smit Barbados

Last reported at 2015-Jan-26 01:33 UTC. Time now 2015-Jan-26 02:21 UTC.
Position N 53°27' W 003°01'.

Length 30 m; draft 4.8 m.

Type: Tug. MMSI: 235055303.

Date/timePositionNaut miles runAvg speedWind from/ knotsBaromVisibWave heightAir tempDewpointWater temp
2015-Jan-26 01:33N 53°27' W 003°01'0 0.4
2015-Jan-26 00:33N 53°27' W 003°02'1 0.9
2015-Jan-25 23:33N 53°26' W 003°01'1 0.6
2015-Jan-25 22:33N 53°26' W 002°60'0 0.0
2015-Jan-25 21:33N 53°26' W 002°60'0 0.0
2015-Jan-25 20:33N 53°26' W 002°60'0 0.0
2015-Jan-25 19:33N 53°26' W 002°60'0 0.0
2015-Jan-25 18:33N 53°26' W 002°60'0 0.0
2015-Jan-25 17:33N 53°26' W 002°60'0 0.0
2015-Jan-25 16:33N 53°26' W 002°60'0 0.0
2015-Jan-25 15:33N 53°26' W 002°60'0 0.0
2015-Jan-25 14:34N 53°26' W 002°60'3 2.5
2015-Jan-25 13:31N 53°23' W 003°00'2 1.9
2015-Jan-25 12:33N 53°25' W 003°01'1 1.2
2015-Jan-25 11:33N 53°26' W 003°00'0 0.4
2015-Jan-25 10:33N 53°26' W 002°60'0 0.0
2015-Jan-25 09:33N 53°26' W 002°60'0 0.0
2015-Jan-25 08:33N 53°26' W 002°60'0 0.0
2015-Jan-25 07:33N 53°26' W 002°60'0 0.0
2015-Jan-25 06:33N 53°26' W 002°60'0 0.0
2015-Jan-25 05:33N 53°26' W 002°60'1 1.5
2015-Jan-25 04:33N 53°27' W 003°01'6 6.3
2015-Jan-25 03:32N 53°21' W 002°58'0 0.1
2015-Jan-25 02:33N 53°21' W 002°58'6 6.1
2015-Jan-25 01:33N 53°27' W 003°01'1 0.6
2015-Jan-25 00:33N 53°28' W 003°01'0 0.1
2015-Jan-24 23:33N 53°28' W 003°02'2 2.0
2015-Jan-24 22:34N 53°26' W 003°00'0 0.1
2015-Jan-24 21:33N 53°26' W 002°60'0 0.0
2015-Jan-24 20:33N 53°26' W 002°60'0 0.0
2015-Jan-24 19:33N 53°26' W 002°60'0 0.0
2015-Jan-24 18:33N 53°26' W 002°60'0 0.0
2015-Jan-24 17:33N 53°26' W 002°60'0 0.0
2015-Jan-24 16:33N 53°26' W 002°60'0 0.0
2015-Jan-24 15:33N 53°26' W 002°60'1 1.4
2015-Jan-24 14:33N 53°27' W 003°02'1 0.6
2015-Jan-24 13:33N 53°27' W 003°01'0 0.2
2015-Jan-24 12:33N 53°28' W 003°01'2 2.0
2015-Jan-24 11:33N 53°26' W 002°60'0 0.0
2015-Jan-24 10:33N 53°26' W 002°60'0 0.0
2015-Jan-24 09:33N 53°26' W 002°60'0 0.0
2015-Jan-24 08:33N 53°26' W 002°60'0 0.0
2015-Jan-24 07:33N 53°26' W 002°60'0 0.0
2015-Jan-24 06:33N 53°26' W 002°60'0 0.0
2015-Jan-24 05:33N 53°26' W 002°60'0 0.0
2015-Jan-24 04:33N 53°26' W 002°60'0 0.0
2015-Jan-24 03:33N 53°26' W 002°60'1 0.6
2015-Jan-24 02:34N 53°26' W 003°01'1 1.2
2015-Jan-24 01:33N 53°27' W 003°01'1 0.6
2015-Jan-24 00:33N 53°27' W 003°02'1 1.3
2015-Jan-23 23:33N 53°26' W 003°01'1 0.6
2015-Jan-23 22:33N 53°26' W 002°60'0 0.0
2015-Jan-23 21:33N 53°26' W 002°60'0 0.0
2015-Jan-23 20:34N 53°26' W 002°60'0 0.0
2015-Jan-23 19:34N 53°26' W 002°60'0 0.0
2015-Jan-23 18:33N 53°26' W 002°60'0 0.0
2015-Jan-23 17:34N 53°26' W 002°60'0 0.0
2015-Jan-23 16:34N 53°26' W 002°60'0 0.0
2015-Jan-23 15:33N 53°26' W 002°60'0 0.0
2015-Jan-23 14:34N 53°26' W 002°60'1 1.4
2015-Jan-23 13:31N 53°27' W 003°01'0 0.4
2015-Jan-23 12:33N 53°27' W 003°01'2 1.8
2015-Jan-23 11:33N 53°28' W 003°03'2 2.4
2015-Jan-23 10:34N 53°26' W 003°01'0 0.4
2015-Jan-23 09:33N 53°26' W 003°00'0 0.2
2015-Jan-23 08:33N 53°26' W 002°60'0 0.0
2015-Jan-23 07:33N 53°26' W 002°60'0 0.0
2015-Jan-23 06:33N 53°26' W 002°60'0 0.0
2015-Jan-23 05:33N 53°26' W 002°60'0 0.0
2015-Jan-23 04:33N 53°26' W 002°60'0 0.0
2015-Jan-23 03:33N 53°26' W 002°60'0 0.0
2015-Jan-23 02:33N 53°26' W 002°60'0 0.0
2015-Jan-23 01:33N 53°26' W 002°60'1 0.7
2015-Jan-23 00:33N 53°26' W 003°01'3 3.2
2015-Jan-22 23:34N 53°23' W 003°00'0 0.1
2015-Jan-22 22:34N 53°23' W 003°00'3 3.2
2015-Jan-22 21:33N 53°26' W 003°01'1 0.6
2015-Jan-22 20:33N 53°26' W 002°60'0 0.0
2015-Jan-22 19:33N 53°26' W 002°60'0 0.0
2015-Jan-22 18:33N 53°26' W 002°60'0 0.0
2015-Jan-22 17:33N 53°26' W 002°60'0 0.0
2015-Jan-22 16:33N 53°26' W 002°60'0 0.0
2015-Jan-22 15:33N 53°26' W 002°60'0 0.0
2015-Jan-22 14:33N 53°26' W 002°60'0 0.0
2015-Jan-22 13:33N 53°26' W 002°60'0 0.0
2015-Jan-22 12:33N 53°26' W 002°60'1 0.5
2015-Jan-22 11:33N 53°26' W 003°00'0 0.2
2015-Jan-22 10:33N 53°26' W 003°01'1 1.0
2015-Jan-22 09:33N 53°27' W 003°01'1 0.7
2015-Jan-22 08:33N 53°28' W 003°02'2 2.1
2015-Jan-22 07:33N 53°26' W 002°60'0 0.0
2015-Jan-22 06:33N 53°26' W 002°60'0 0.0
2015-Jan-22 05:33N 53°26' W 002°60'0 0.0
2015-Jan-22 04:33N 53°26' W 002°60'0 0.0
2015-Jan-22 03:34N 53°26' W 002°60'0 0.0
2015-Jan-22 02:33N 53°26' W 002°60'0 0.0
2015-Jan-22 01:33N 53°26' W 002°60'0 0.0
2015-Jan-22 00:33N 53°26' W 002°60'0 0.0
2015-Jan-21 23:33N 53°26' W 002°60'0 0.0
2015-Jan-21 22:50N 53°26' W 002°60'0 0.0
2015-Jan-21 22:46N 53°26' W 002°60'0 0.0
2015-Jan-21 22:33N 53°26' W 002°60'0 0.0
2015-Jan-21 21:33N 53°26' W 002°60'0 0.0
2015-Jan-21 20:30N 53°26' W 002°60'0 0.0
2015-Jan-21 19:34N 53°26' W 002°60'0 0.0
2015-Jan-21 18:33N 53°26' W 002°60'0 0.0
2015-Jan-21 17:33N 53°26' W 002°60'0 0.0
2015-Jan-21 16:33N 53°26' W 002°60'0 0.0
2015-Jan-21 15:33N 53°26' W 002°60'0 0.0
2015-Jan-21 14:33N 53°26' W 002°60'0 0.0
2015-Jan-21 13:33N 53°26' W 002°60'1 1.4
2015-Jan-21 12:33N 53°27' W 003°01'1 0.6
2015-Jan-21 11:33N 53°26' W 003°01'0 0.2
2015-Jan-21 10:33N 53°27' W 003°01'0 0.2
2015-Jan-21 09:33N 53°27' W 003°01'1 1.1
2015-Jan-21 08:33N 53°26' W 002°60'0 0.0
2015-Jan-21 07:33N 53°26' W 002°60'0 0.0
2015-Jan-21 06:33N 53°26' W 002°60'0 0.0
2015-Jan-21 05:33N 53°26' W 002°60'0 0.0
2015-Jan-21 04:33N 53°26' W 002°60'0 0.0
2015-Jan-21 03:33N 53°26' W 002°60'0 0.0
2015-Jan-21 02:33N 53°26' W 002°60'0 0.0
2015-Jan-21 01:33N 53°26' W 002°60'0 0.1
2015-Jan-21 00:33N 53°26' W 003°00'2 1.9
2015-Jan-20 23:33N 53°28' W 003°01'1 0.6
2015-Jan-20 22:33N 53°27' W 003°01'1 0.6
2015-Jan-20 21:33N 53°27' W 003°02'0 0.4
2015-Jan-20 20:33N 53°27' W 003°02'1 1.2
2015-Jan-20 19:33N 53°26' W 003°00'1 0.7
2015-Jan-20 18:33N 53°26' W 002°60'0 0.0
2015-Jan-20 17:33N 53°26' W 002°60'0 0.0
2015-Jan-20 16:33N 53°26' W 002°60'0 0.0
2015-Jan-20 15:33N 53°26' W 002°60'0 0.0
2015-Jan-20 14:33N 53°26' W 002°60'0 0.0
2015-Jan-20 13:33N 53°26' W 002°60'0 0.2
2015-Jan-20 12:33N 53°26' W 003°00'1 1.4
2015-Jan-20 11:33N 53°27' W 003°01'1 0.5
2015-Jan-20 10:33N 53°27' W 003°01'3 2.6
2015-Jan-20 09:33N 53°29' W 003°04'3 2.7
2015-Jan-20 08:34N 53°26' W 003°01'1 1.1
2015-Jan-20 07:33N 53°26' W 002°60'0 0.0
2015-Jan-20 06:33N 53°26' W 002°60'0 0.0
2015-Jan-20 05:33N 53°26' W 002°60'0 0.0
2015-Jan-20 04:33N 53°26' W 002°60'0 0.0
2015-Jan-20 03:31N 53°26' W 002°60'0 0.0
2015-Jan-20 02:32N 53°26' W 002°60'0 0.0
2015-Jan-20 01:33N 53°26' W 002°60'0 0.0
2015-Jan-20 00:33N 53°26' W 002°60'0 0.0
2015-Jan-19 23:33N 53°26' W 002°60'1 0.6
2015-Jan-19 22:33N 53°26' W 003°01'3 3.1
2015-Jan-19 21:34N 53°23' W 003°00'3 3.2
2015-Jan-19 20:33N 53°26' W 003°01'1 0.6
2015-Jan-19 19:33N 53°27' W 003°01'1 0.7
2015-Jan-19 18:33N 53°26' W 003°01'1 0.6
2015-Jan-19 17:33N 53°26' W 002°60'0 0.0
2015-Jan-19 16:33N 53°26' W 002°60'0 0.0
2015-Jan-19 15:33N 53°26' W 002°60'0 0.0
2015-Jan-19 14:33N 53°26' W 002°60'0 0.0
2015-Jan-19 13:33N 53°26' W 002°60'1 0.7
2015-Jan-19 12:33N 53°26' W 003°01'6 5.8
2015-Jan-19 11:33N 53°21' W 002°58'1 1.5
2015-Jan-19 10:33N 53°19' W 002°57'4 4.3
2015-Jan-19 09:33N 53°23' W 003°01'0 0.2
2015-Jan-19 08:33N 53°23' W 003°00'0 0.2
2015-Jan-19 07:33N 53°23' W 003°00'4 3.7
2015-Jan-19 06:33N 53°27' W 003°01'1 0.8
2015-Jan-19 05:33N 53°28' W 003°02'0 0.4
2015-Jan-19 04:33N 53°28' W 003°01'0 0.0
2015-Jan-19 03:33N 53°28' W 003°01'0 0.0
2015-Jan-19 02:33N 53°28' W 003°01'0 0.0
2015-Jan-19 01:33N 53°28' W 003°01'0 0.0
2015-Jan-19 00:33N 53°28' W 003°01'0 0.0
2015-Jan-18 23:33N 53°28' W 003°01'0 0.3
2015-Jan-18 22:33N 53°27' W 003°01'3 3.0
2015-Jan-18 21:33N 53°24' W 003°00'0 0.0
2015-Jan-18 20:33N 53°24' W 002°60'0 0.0
2015-Jan-18 19:33N 53°24' W 002°60'0 0.0
2015-Jan-18 18:33N 53°24' W 002°60'0 0.2
2015-Jan-18 17:33N 53°24' W 003°00'2 1.9
2015-Jan-18 16:33N 53°26' W 003°01'1 0.7
2015-Jan-18 15:33N 53°26' W 002°60'0 0.0
2015-Jan-18 14:33N 53°26' W 002°60'0 0.0
2015-Jan-18 13:33N 53°26' W 002°60'0 0.0
2015-Jan-18 12:33N 53°26' W 002°60'0 0.0
2015-Jan-18 11:33N 53°26' W 002°60'0 0.0
2015-Jan-18 10:33N 53°26' W 002°60'0 0.0
2015-Jan-18 09:33N 53°26' W 002°60'0 0.0
2015-Jan-18 08:33N 53°26' W 002°60'0 0.0
2015-Jan-18 07:33N 53°26' W 002°60'0 0.0
2015-Jan-18 06:33N 53°26' W 002°60'0 0.0
2015-Jan-18 05:33N 53°26' W 002°60'0 0.0
2015-Jan-18 04:33N 53°26' W 002°60'0 0.0
2015-Jan-18 03:33N 53°26' W 002°60'0 0.0
2015-Jan-18 02:27N 53°26' W 002°60'0 0.0
2015-Jan-18 01:33N 53°26' W 002°60'0 0.0
2015-Jan-18 00:33N 53°26' W 002°60'1 0.5
2015-Jan-17 23:33N 53°26' W 003°00'0 0.2
2015-Jan-17 22:34N 53°26' W 003°01'1 0.8
2015-Jan-17 21:34N 53°27' W 003°01'1 0.6
2015-Jan-17 20:33N 53°28' W 003°01'0 0.5
2015-Jan-17 19:33N 53°27' W 003°01'0 0.5
2015-Jan-17 18:33N 53°27' W 003°00'1 0.5
2015-Jan-17 17:33N 53°26' W 003°01'1 0.5
2015-Jan-17 16:34N 53°26' W 003°01'2 2.2
2015-Jan-17 15:33N 53°28' W 003°03'2 1.5
2015-Jan-17 14:32N 53°27' W 003°01'1 1.4
2015-Jan-17 13:33N 53°26' W 002°60'0 0.0
2015-Jan-17 12:33N 53°26' W 002°60'0 0.0
2015-Jan-17 11:33N 53°26' W 002°60'1 0.5
2015-Jan-17 10:34N 53°26' W 003°00'0 0.0
2015-Jan-17 09:33N 53°26' W 003°00'1 1.3
2015-Jan-17 08:33N 53°27' W 003°01'1 0.7
2015-Jan-17 07:33N 53°27' W 003°01'2 2.3
2015-Jan-17 06:33N 53°28' W 003°04'2 2.1
2015-Jan-17 05:33N 53°27' W 003°01'0 0.2
2015-Jan-17 04:34N 53°27' W 003°01'1 1.5
2015-Jan-17 03:33N 53°26' W 002°60'0 0.0
2015-Jan-17 02:33N 53°26' W 002°60'0 0.0
2015-Jan-17 01:33N 53°26' W 002°60'0 0.0
2015-Jan-17 00:33N 53°26' W 002°60'0 0.0
2015-Jan-16 23:33N 53°26' W 002°60'0 0.0
2015-Jan-16 22:33N 53°26' W 002°60'0 0.0
2015-Jan-16 21:33N 53°26' W 002°60'0 0.0
2015-Jan-16 20:33N 53°26' W 002°60'0 0.0
2015-Jan-16 19:33N 53°26' W 002°60'0 0.0
2015-Jan-16 18:33N 53°26' W 002°60'0 0.0
2015-Jan-16 17:33N 53°26' W 002°60'0 0.0
2015-Jan-16 16:33N 53°26' W 002°60'1 0.7
2015-Jan-16 15:34N 53°26' W 003°01'2 2.0
2015-Jan-16 14:34N 53°24' W 003°00'2 2.0
2015-Jan-16 13:33N 53°26' W 003°01'0 0.3
2015-Jan-16 12:33N 53°26' W 003°01'1 0.6
2015-Jan-16 11:33N 53°26' W 002°60'0 0.0
2015-Jan-16 10:34N 53°26' W 002°60'0 0.0
2015-Jan-16 09:34N 53°26' W 002°60'0 0.0
2015-Jan-16 08:34N 53°26' W 002°60'1 1.2
2015-Jan-16 07:33N 53°27' W 003°01'0 0.2
2015-Jan-16 06:33N 53°27' W 003°01'0 0.3
2015-Jan-16 05:33N 53°27' W 003°01'0 0.4
2015-Jan-16 04:33N 53°27' W 003°01'2 1.5
2015-Jan-16 03:33N 53°26' W 002°60'0 0.0
2015-Jan-16 02:33N 53°26' W 002°60'0 0.0
2015-Jan-16 01:33N 53°26' W 002°60'  
Track history (hours):
 
Tides and Currents Weather Stations Pressure Air Temp Water Temp Dewpoint Dewpoint Depression Visibility Wind Speed Wind Dir Waves Ship Positions

Smit Barbados

Last reported at 2015-Jan-26 01:33 UTC. Time now 2015-Jan-26 02:21 UTC.
Position N 53°27' W 003°01'.

Length 30 m; draft 4.8 m.

Type: Tug. MMSI: 235055303.

Date/timePositionNaut miles runAvg speedWind from/ knotsBaromVisibWave heightAir tempDewpointWater temp
2015-Jan-26 01:33N 53°27' W 003°01'0 0.4
2015-Jan-26 00:33N 53°27' W 003°02'1 0.9
2015-Jan-25 23:33N 53°26' W 003°01'1 0.6
2015-Jan-25 22:33N 53°26' W 002°60'0 0.0
2015-Jan-25 21:33N 53°26' W 002°60'0 0.0
2015-Jan-25 20:33N 53°26' W 002°60'0 0.0
2015-Jan-25 19:33N 53°26' W 002°60'0 0.0
2015-Jan-25 18:33N 53°26' W 002°60'0 0.0
2015-Jan-25 17:33N 53°26' W 002°60'0 0.0
2015-Jan-25 16:33N 53°26' W 002°60'0 0.0
2015-Jan-25 15:33N 53°26' W 002°60'0 0.0
2015-Jan-25 14:34N 53°26' W 002°60'3 2.5
2015-Jan-25 13:31N 53°23' W 003°00'2 1.9
2015-Jan-25 12:33N 53°25' W 003°01'1 1.2
2015-Jan-25 11:33N 53°26' W 003°00'0 0.4
2015-Jan-25 10:33N 53°26' W 002°60'0 0.0
2015-Jan-25 09:33N 53°26' W 002°60'0 0.0
2015-Jan-25 08:33N 53°26' W 002°60'0 0.0
2015-Jan-25 07:33N 53°26' W 002°60'0 0.0
2015-Jan-25 06:33N 53°26' W 002°60'0 0.0
2015-Jan-25 05:33N 53°26' W 002°60'1 1.5
2015-Jan-25 04:33N 53°27' W 003°01'6 6.3
2015-Jan-25 03:32N 53°21' W 002°58'0 0.1
2015-Jan-25 02:33N 53°21' W 002°58'6 6.1
2015-Jan-25 01:33N 53°27' W 003°01'1 0.6
2015-Jan-25 00:33N 53°28' W 003°01'0 0.1
2015-Jan-24 23:33N 53°28' W 003°02'2 2.0
2015-Jan-24 22:34N 53°26' W 003°00'0 0.1
2015-Jan-24 21:33N 53°26' W 002°60'0 0.0
2015-Jan-24 20:33N 53°26' W 002°60'0 0.0
2015-Jan-24 19:33N 53°26' W 002°60'0 0.0
2015-Jan-24 18:33N 53°26' W 002°60'0 0.0
2015-Jan-24 17:33N 53°26' W 002°60'0 0.0
2015-Jan-24 16:33N 53°26' W 002°60'0 0.0
2015-Jan-24 15:33N 53°26' W 002°60'1 1.4
2015-Jan-24 14:33N 53°27' W 003°02'1 0.6
2015-Jan-24 13:33N 53°27' W 003°01'0 0.2
2015-Jan-24 12:33N 53°28' W 003°01'2 2.0
2015-Jan-24 11:33N 53°26' W 002°60'0 0.0
2015-Jan-24 10:33N 53°26' W 002°60'0 0.0
2015-Jan-24 09:33N 53°26' W 002°60'0 0.0
2015-Jan-24 08:33N 53°26' W 002°60'0 0.0
2015-Jan-24 07:33N 53°26' W 002°60'0 0.0
2015-Jan-24 06:33N 53°26' W 002°60'0 0.0
2015-Jan-24 05:33N 53°26' W 002°60'0 0.0
2015-Jan-24 04:33N 53°26' W 002°60'0 0.0
2015-Jan-24 03:33N 53°26' W 002°60'1 0.6
2015-Jan-24 02:34N 53°26' W 003°01'1 1.2
2015-Jan-24 01:33N 53°27' W 003°01'1 0.6
2015-Jan-24 00:33N 53°27' W 003°02'1 1.3
2015-Jan-23 23:33N 53°26' W 003°01'1 0.6
2015-Jan-23 22:33N 53°26' W 002°60'0 0.0
2015-Jan-23 21:33N 53°26' W 002°60'0 0.0
2015-Jan-23 20:34N 53°26' W 002°60'0 0.0
2015-Jan-23 19:34N 53°26' W 002°60'0 0.0
2015-Jan-23 18:33N 53°26' W 002°60'0 0.0
2015-Jan-23 17:34N 53°26' W 002°60'0 0.0
2015-Jan-23 16:34N 53°26' W 002°60'0 0.0
2015-Jan-23 15:33N 53°26' W 002°60'0 0.0
2015-Jan-23 14:34N 53°26' W 002°60'1 1.4
2015-Jan-23 13:31N 53°27' W 003°01'0 0.4
2015-Jan-23 12:33N 53°27' W 003°01'2 1.8
2015-Jan-23 11:33N 53°28' W 003°03'2 2.4
2015-Jan-23 10:34N 53°26' W 003°01'0 0.4
2015-Jan-23 09:33N 53°26' W 003°00'0 0.2
2015-Jan-23 08:33N 53°26' W 002°60'0 0.0
2015-Jan-23 07:33N 53°26' W 002°60'0 0.0
2015-Jan-23 06:33N 53°26' W 002°60'0 0.0
2015-Jan-23 05:33N 53°26' W 002°60'0 0.0
2015-Jan-23 04:33N 53°26' W 002°60'0 0.0
2015-Jan-23 03:33N 53°26' W 002°60'0 0.0
2015-Jan-23 02:33N 53°26' W 002°60'0 0.0
2015-Jan-23 01:33N 53°26' W 002°60'1 0.7
2015-Jan-23 00:33N 53°26' W 003°01'3 3.2
2015-Jan-22 23:34N 53°23' W 003°00'0 0.1
2015-Jan-22 22:34N 53°23' W 003°00'3 3.2
2015-Jan-22 21:33N 53°26' W 003°01'1 0.6
2015-Jan-22 20:33N 53°26' W 002°60'0 0.0
2015-Jan-22 19:33N 53°26' W 002°60'0 0.0
2015-Jan-22 18:33N 53°26' W 002°60'0 0.0
2015-Jan-22 17:33N 53°26' W 002°60'0 0.0
2015-Jan-22 16:33N 53°26' W 002°60'0 0.0
2015-Jan-22 15:33N 53°26' W 002°60'0 0.0
2015-Jan-22 14:33N 53°26' W 002°60'0 0.0
2015-Jan-22 13:33N 53°26' W 002°60'0 0.0
2015-Jan-22 12:33N 53°26' W 002°60'1 0.5
2015-Jan-22 11:33N 53°26' W 003°00'0 0.2
2015-Jan-22 10:33N 53°26' W 003°01'1 1.0
2015-Jan-22 09:33N 53°27' W 003°01'1 0.7
2015-Jan-22 08:33N 53°28' W 003°02'2 2.1
2015-Jan-22 07:33N 53°26' W 002°60'0 0.0
2015-Jan-22 06:33N 53°26' W 002°60'0 0.0
2015-Jan-22 05:33N 53°26' W 002°60'0 0.0
2015-Jan-22 04:33N 53°26' W 002°60'0 0.0
2015-Jan-22 03:34N 53°26' W 002°60'0 0.0
2015-Jan-22 02:33N 53°26' W 002°60'0 0.0
2015-Jan-22 01:33N 53°26' W 002°60'0 0.0
2015-Jan-22 00:33N 53°26' W 002°60'0 0.0
2015-Jan-21 23:33N 53°26' W 002°60'0 0.0
2015-Jan-21 22:50N 53°26' W 002°60'0 0.0
2015-Jan-21 22:46N 53°26' W 002°60'0 0.0
2015-Jan-21 22:33N 53°26' W 002°60'0 0.0
2015-Jan-21 21:33N 53°26' W 002°60'0 0.0
2015-Jan-21 20:30N 53°26' W 002°60'0 0.0
2015-Jan-21 19:34N 53°26' W 002°60'0 0.0
2015-Jan-21 18:33N 53°26' W 002°60'0 0.0
2015-Jan-21 17:33N 53°26' W 002°60'0 0.0
2015-Jan-21 16:33N 53°26' W 002°60'0 0.0
2015-Jan-21 15:33N 53°26' W 002°60'0 0.0
2015-Jan-21 14:33N 53°26' W 002°60'0 0.0
2015-Jan-21 13:33N 53°26' W 002°60'1 1.4
2015-Jan-21 12:33N 53°27' W 003°01'1 0.6
2015-Jan-21 11:33N 53°26' W 003°01'0 0.2
2015-Jan-21 10:33N 53°27' W 003°01'0 0.2
2015-Jan-21 09:33N 53°27' W 003°01'1 1.1
2015-Jan-21 08:33N 53°26' W 002°60'0 0.0
2015-Jan-21 07:33N 53°26' W 002°60'0 0.0
2015-Jan-21 06:33N 53°26' W 002°60'0 0.0
2015-Jan-21 05:33N 53°26' W 002°60'0 0.0
2015-Jan-21 04:33N 53°26' W 002°60'0 0.0
2015-Jan-21 03:33N 53°26' W 002°60'0 0.0
2015-Jan-21 02:33N 53°26' W 002°60'0 0.0
2015-Jan-21 01:33N 53°26' W 002°60'0 0.1
2015-Jan-21 00:33N 53°26' W 003°00'2 1.9
2015-Jan-20 23:33N 53°28' W 003°01'1 0.6
2015-Jan-20 22:33N 53°27' W 003°01'1 0.6
2015-Jan-20 21:33N 53°27' W 003°02'0 0.4
2015-Jan-20 20:33N 53°27' W 003°02'1 1.2
2015-Jan-20 19:33N 53°26' W 003°00'1 0.7
2015-Jan-20 18:33N 53°26' W 002°60'0 0.0
2015-Jan-20 17:33N 53°26' W 002°60'0 0.0
2015-Jan-20 16:33N 53°26' W 002°60'0 0.0
2015-Jan-20 15:33N 53°26' W 002°60'0 0.0
2015-Jan-20 14:33N 53°26' W 002°60'0 0.0
2015-Jan-20 13:33N 53°26' W 002°60'0 0.2
2015-Jan-20 12:33N 53°26' W 003°00'1 1.4
2015-Jan-20 11:33N 53°27' W 003°01'1 0.5
2015-Jan-20 10:33N 53°27' W 003°01'3 2.6
2015-Jan-20 09:33N 53°29' W 003°04'3 2.7
2015-Jan-20 08:34N 53°26' W 003°01'1 1.1
2015-Jan-20 07:33N 53°26' W 002°60'0 0.0
2015-Jan-20 06:33N 53°26' W 002°60'0 0.0
2015-Jan-20 05:33N 53°26' W 002°60'0 0.0
2015-Jan-20 04:33N 53°26' W 002°60'0 0.0
2015-Jan-20 03:31N 53°26' W 002°60'0 0.0
2015-Jan-20 02:32N 53°26' W 002°60'0 0.0
2015-Jan-20 01:33N 53°26' W 002°60'0 0.0
2015-Jan-20 00:33N 53°26' W 002°60'0 0.0
2015-Jan-19 23:33N 53°26' W 002°60'1 0.6
2015-Jan-19 22:33N 53°26' W 003°01'3 3.1
2015-Jan-19 21:34N 53°23' W 003°00'3 3.2
2015-Jan-19 20:33N 53°26' W 003°01'1 0.6
2015-Jan-19 19:33N 53°27' W 003°01'1 0.7
2015-Jan-19 18:33N 53°26' W 003°01'1 0.6
2015-Jan-19 17:33N 53°26' W 002°60'0 0.0
2015-Jan-19 16:33N 53°26' W 002°60'0 0.0
2015-Jan-19 15:33N 53°26' W 002°60'0 0.0
2015-Jan-19 14:33N 53°26' W 002°60'0 0.0
2015-Jan-19 13:33N 53°26' W 002°60'1 0.7
2015-Jan-19 12:33N 53°26' W 003°01'6 5.8
2015-Jan-19 11:33N 53°21' W 002°58'1 1.5
2015-Jan-19 10:33N 53°19' W 002°57'4 4.3
2015-Jan-19 09:33N 53°23' W 003°01'0 0.2
2015-Jan-19 08:33N 53°23' W 003°00'0 0.2
2015-Jan-19 07:33N 53°23' W 003°00'4 3.7
2015-Jan-19 06:33N 53°27' W 003°01'1 0.8
2015-Jan-19 05:33N 53°28' W 003°02'0 0.4
2015-Jan-19 04:33N 53°28' W 003°01'0 0.0
2015-Jan-19 03:33N 53°28' W 003°01'0 0.0
2015-Jan-19 02:33N 53°28' W 003°01'0 0.0
2015-Jan-19 01:33N 53°28' W 003°01'0 0.0
2015-Jan-19 00:33N 53°28' W 003°01'0 0.0
2015-Jan-18 23:33N 53°28' W 003°01'0 0.3
2015-Jan-18 22:33N 53°27' W 003°01'3 3.0
2015-Jan-18 21:33N 53°24' W 003°00'0 0.0
2015-Jan-18 20:33N 53°24' W 002°60'0 0.0
2015-Jan-18 19:33N 53°24' W 002°60'0 0.0
2015-Jan-18 18:33N 53°24' W 002°60'0 0.2
2015-Jan-18 17:33N 53°24' W 003°00'2 1.9
2015-Jan-18 16:33N 53°26' W 003°01'1 0.7
2015-Jan-18 15:33N 53°26' W 002°60'0 0.0
2015-Jan-18 14:33N 53°26' W 002°60'0 0.0
2015-Jan-18 13:33N 53°26' W 002°60'0 0.0
2015-Jan-18 12:33N 53°26' W 002°60'0 0.0
2015-Jan-18 11:33N 53°26' W 002°60'0 0.0
2015-Jan-18 10:33N 53°26' W 002°60'0 0.0
2015-Jan-18 09:33N 53°26' W 002°60'0 0.0
2015-Jan-18 08:33N 53°26' W 002°60'0 0.0
2015-Jan-18 07:33N 53°26' W 002°60'0 0.0
2015-Jan-18 06:33N 53°26' W 002°60'0 0.0
2015-Jan-18 05:33N 53°26' W 002°60'0 0.0
2015-Jan-18 04:33N 53°26' W 002°60'0 0.0
2015-Jan-18 03:33N 53°26' W 002°60'0 0.0
2015-Jan-18 02:27N 53°26' W 002°60'0 0.0
2015-Jan-18 01:33N 53°26' W 002°60'0 0.0
2015-Jan-18 00:33N 53°26' W 002°60'1 0.5
2015-Jan-17 23:33N 53°26' W 003°00'0 0.2
2015-Jan-17 22:34N 53°26' W 003°01'1 0.8
2015-Jan-17 21:34N 53°27' W 003°01'1 0.6
2015-Jan-17 20:33N 53°28' W 003°01'0 0.5
2015-Jan-17 19:33N 53°27' W 003°01'0 0.5
2015-Jan-17 18:33N 53°27' W 003°00'1 0.5
2015-Jan-17 17:33N 53°26' W 003°01'1 0.5
2015-Jan-17 16:34N 53°26' W 003°01'2 2.2
2015-Jan-17 15:33N 53°28' W 003°03'2 1.5
2015-Jan-17 14:32N 53°27' W 003°01'1 1.4
2015-Jan-17 13:33N 53°26' W 002°60'0 0.0
2015-Jan-17 12:33N 53°26' W 002°60'0 0.0
2015-Jan-17 11:33N 53°26' W 002°60'1 0.5
2015-Jan-17 10:34N 53°26' W 003°00'0 0.0
2015-Jan-17 09:33N 53°26' W 003°00'1 1.3
2015-Jan-17 08:33N 53°27' W 003°01'1 0.7
2015-Jan-17 07:33N 53°27' W 003°01'2 2.3
2015-Jan-17 06:33N 53°28' W 003°04'2 2.1
2015-Jan-17 05:33N 53°27' W 003°01'0 0.2
2015-Jan-17 04:34N 53°27' W 003°01'1 1.5
2015-Jan-17 03:33N 53°26' W 002°60'0 0.0
2015-Jan-17 02:33N 53°26' W 002°60'0 0.0
2015-Jan-17 01:33N 53°26' W 002°60'0 0.0
2015-Jan-17 00:33N 53°26' W 002°60'0 0.0
2015-Jan-16 23:33N 53°26' W 002°60'0 0.0
2015-Jan-16 22:33N 53°26' W 002°60'0 0.0
2015-Jan-16 21:33N 53°26' W 002°60'0 0.0
2015-Jan-16 20:33N 53°26' W 002°60'0 0.0
2015-Jan-16 19:33N 53°26' W 002°60'0 0.0
2015-Jan-16 18:33N 53°26' W 002°60'0 0.0
2015-Jan-16 17:33N 53°26' W 002°60'0 0.0
2015-Jan-16 16:33N 53°26' W 002°60'1 0.7
2015-Jan-16 15:34N 53°26' W 003°01'2 2.0
2015-Jan-16 14:34N 53°24' W 003°00'2 2.0
2015-Jan-16 13:33N 53°26' W 003°01'0 0.3
2015-Jan-16 12:33N 53°26' W 003°01'1 0.6
2015-Jan-16 11:33N 53°26' W 002°60'0 0.0
2015-Jan-16 10:34N 53°26' W 002°60'0 0.0
2015-Jan-16 09:34N 53°26' W 002°60'0 0.0
2015-Jan-16 08:34N 53°26' W 002°60'1 1.2
2015-Jan-16 07:33N 53°27' W 003°01'0 0.2
2015-Jan-16 06:33N 53°27' W 003°01'0 0.3
2015-Jan-16 05:33N 53°27' W 003°01'0 0.4
2015-Jan-16 04:33N 53°27' W 003°01'2 1.5
2015-Jan-16 03:33N 53°26' W 002°60'0 0.0
2015-Jan-16 02:33N 53°26' W 002°60'0 0.0
2015-Jan-16 01:33N 53°26' W 002°60'  

Dump ship's entire track history